sensor_id;sensor_type;location;lat;lon;timestamp;P1;durP1;ratioP1;P2;durP2;ratioP2
47589;SDS011;33316;52.298;9.056;2024-01-06T00:00:47;2.20;;;1.10;;
47589;SDS011;33316;52.298;9.056;2024-01-06T00:03:15;2.28;;;1.23;;
47589;SDS011;33316;52.298;9.056;2024-01-06T00:05:42;1.65;;;1.10;;
47589;SDS011;33316;52.298;9.056;2024-01-06T00:08:09;1.35;;;1.00;;
47589;SDS011;33316;52.298;9.056;2024-01-06T00:10:36;1.10;;;0.90;;
47589;SDS011;33316;52.298;9.056;2024-01-06T00:13:03;3.45;;;1.10;;
47589;SDS011;33316;52.298;9.056;2024-01-06T00:15:30;2.03;;;1.17;;
47589;SDS011;33316;52.298;9.056;2024-01-06T00:17:59;1.67;;;1.30;;
47589;SDS011;33316;52.298;9.056;2024-01-06T00:20:26;1.30;;;1.20;;
47589;SDS011;33316;52.298;9.056;2024-01-06T00:22:53;2.03;;;1.20;;
47589;SDS011;33316;52.298;9.056;2024-01-06T00:25:21;1.73;;;1.20;;
47589;SDS011;33316;52.298;9.056;2024-01-06T00:27:49;2.00;;;1.10;;
47589;SDS011;33316;52.298;9.056;2024-01-06T00:30:16;2.08;;;1.13;;
47589;SDS011;33316;52.298;9.056;2024-01-06T00:32:43;1.73;;;1.15;;
47589;SDS011;33316;52.298;9.056;2024-01-06T00:35:12;2.22;;;1.30;;
47589;SDS011;33316;52.298;9.056;2024-01-06T00:37:39;2.15;;;1.38;;
47589;SDS011;33316;52.298;9.056;2024-01-06T00:40:06;3.45;;;1.58;;
47589;SDS011;33316;52.298;9.056;2024-01-06T00:42:33;2.53;;;1.42;;
47589;SDS011;33316;52.298;9.056;2024-01-06T00:45:00;1.92;;;1.52;;
47589;SDS011;33316;52.298;9.056;2024-01-06T00:47:28;2.00;;;1.80;;
47589;SDS011;33316;52.298;9.056;2024-01-06T00:49:55;1.98;;;1.70;;
47589;SDS011;33316;52.298;9.056;2024-01-06T00:52:23;2.90;;;2.13;;
47589;SDS011;33316;52.298;9.056;2024-01-06T00:54:50;3.20;;;1.80;;
47589;SDS011;33316;52.298;9.056;2024-01-06T00:57:17;3.15;;;2.00;;
47589;SDS011;33316;52.298;9.056;2024-01-06T00:59:49;2.70;;;2.22;;
47589;SDS011;33316;52.298;9.056;2024-01-06T01:02:16;2.40;;;2.00;;
47589;SDS011;33316;52.298;9.056;2024-01-06T01:04:43;2.35;;;1.80;;
47589;SDS011;33316;52.298;9.056;2024-01-06T01:07:10;2.20;;;1.70;;
47589;SDS011;33316;52.298;9.056;2024-01-06T01:09:40;2.40;;;2.20;;
47589;SDS011;33316;52.298;9.056;2024-01-06T01:12:07;2.70;;;2.15;;
47589;SDS011;33316;52.298;9.056;2024-01-06T01:14:34;3.08;;;2.22;;
47589;SDS011;33316;52.298;9.056;2024-01-06T01:17:00;2.35;;;1.80;;
47589;SDS011;33316;52.298;9.056;2024-01-06T01:19:27;3.10;;;2.20;;
47589;SDS011;33316;52.298;9.056;2024-01-06T01:21:54;4.28;;;2.67;;
47589;SDS011;33316;52.298;9.056;2024-01-06T01:24:22;2.90;;;2.60;;
47589;SDS011;33316;52.298;9.056;2024-01-06T01:26:50;3.58;;;2.20;;
47589;SDS011;33316;52.298;9.056;2024-01-06T01:29:17;3.75;;;3.13;;
47589;SDS011;33316;52.298;9.056;2024-01-06T01:31:45;2.47;;;2.25;;
47589;SDS011;33316;52.298;9.056;2024-01-06T01:34:12;3.15;;;2.85;;
47589;SDS011;33316;52.298;9.056;2024-01-06T01:36:39;4.70;;;3.00;;
47589;SDS011;33316;52.298;9.056;2024-01-06T01:39:07;4.13;;;2.70;;
47589;SDS011;33316;52.298;9.056;2024-01-06T01:41:34;3.30;;;3.00;;
47589;SDS011;33316;52.298;9.056;2024-01-06T01:44:04;5.57;;;3.83;;
47589;SDS011;33316;52.298;9.056;2024-01-06T01:46:32;4.47;;;4.05;;
47589;SDS011;33316;52.298;9.056;2024-01-06T01:49:00;4.35;;;3.53;;
47589;SDS011;33316;52.298;9.056;2024-01-06T01:51:29;4.88;;;3.85;;
47589;SDS011;33316;52.298;9.056;2024-01-06T01:53:57;3.88;;;3.17;;
47589;SDS011;33316;52.298;9.056;2024-01-06T01:56:26;3.42;;;2.85;;
47589;SDS011;33316;52.298;9.056;2024-01-06T01:58:54;3.13;;;2.40;;
47589;SDS011;33316;52.298;9.056;2024-01-06T02:01:25;3.17;;;2.40;;
47589;SDS011;33316;52.298;9.056;2024-01-06T02:03:52;2.10;;;1.90;;
47589;SDS011;33316;52.298;9.056;2024-01-06T02:06:19;2.80;;;1.88;;
47589;SDS011;33316;52.298;9.056;2024-01-06T02:08:46;3.03;;;2.20;;
47589;SDS011;33316;52.298;9.056;2024-01-06T02:11:13;2.60;;;2.10;;
47589;SDS011;33316;52.298;9.056;2024-01-06T02:13:41;1.90;;;1.63;;
47589;SDS011;33316;52.298;9.056;2024-01-06T02:16:08;2.38;;;1.75;;
47589;SDS011;33316;52.298;9.056;2024-01-06T02:18:36;3.03;;;2.53;;
47589;SDS011;33316;52.298;9.056;2024-01-06T02:21:03;2.60;;;2.20;;
47589;SDS011;33316;52.298;9.056;2024-01-06T02:23:35;3.42;;;2.40;;
47589;SDS011;33316;52.298;9.056;2024-01-06T02:26:03;3.22;;;2.42;;
47589;SDS011;33316;52.298;9.056;2024-01-06T02:28:32;3.08;;;2.40;;
47589;SDS011;33316;52.298;9.056;2024-01-06T02:30:59;3.20;;;2.58;;
47589;SDS011;33316;52.298;9.056;2024-01-06T02:33:28;2.85;;;2.40;;
47589;SDS011;33316;52.298;9.056;2024-01-06T02:35:55;2.97;;;2.28;;
47589;SDS011;33316;52.298;9.056;2024-01-06T02:38:22;2.75;;;2.25;;
47589;SDS011;33316;52.298;9.056;2024-01-06T02:40:50;3.65;;;2.90;;
47589;SDS011;33316;52.298;9.056;2024-01-06T02:43:18;2.95;;;2.42;;
47589;SDS011;33316;52.298;9.056;2024-01-06T02:45:45;2.83;;;2.30;;
47589;SDS011;33316;52.298;9.056;2024-01-06T02:48:13;4.28;;;2.45;;
47589;SDS011;33316;52.298;9.056;2024-01-06T02:50:40;2.88;;;2.50;;
47589;SDS011;33316;52.298;9.056;2024-01-06T02:53:08;3.70;;;2.90;;
47589;SDS011;33316;52.298;9.056;2024-01-06T02:55:37;4.57;;;3.03;;
47589;SDS011;33316;52.298;9.056;2024-01-06T02:58:06;3.60;;;2.95;;
47589;SDS011;33316;52.298;9.056;2024-01-06T03:00:35;3.40;;;2.85;;
47589;SDS011;33316;52.298;9.056;2024-01-06T03:03:02;4.00;;;3.03;;
47589;SDS011;33316;52.298;9.056;2024-01-06T03:05:29;3.03;;;2.65;;
47589;SDS011;33316;52.298;9.056;2024-01-06T03:07:58;3.45;;;2.72;;
47589;SDS011;33316;52.298;9.056;2024-01-06T03:10:25;3.83;;;2.92;;
47589;SDS011;33316;52.298;9.056;2024-01-06T03:12:52;3.85;;;2.90;;
47589;SDS011;33316;52.298;9.056;2024-01-06T03:15:21;4.43;;;3.15;;
47589;SDS011;33316;52.298;9.056;2024-01-06T03:17:48;4.53;;;3.70;;
47589;SDS011;33316;52.298;9.056;2024-01-06T03:20:15;4.25;;;3.28;;
47589;SDS011;33316;52.298;9.056;2024-01-06T03:22:44;3.72;;;2.85;;
47589;SDS011;33316;52.298;9.056;2024-01-06T03:25:12;3.72;;;2.92;;
47589;SDS011;33316;52.298;9.056;2024-01-06T03:27:39;4.60;;;3.28;;
47589;SDS011;33316;52.298;9.056;2024-01-06T03:30:06;3.47;;;2.90;;
47589;SDS011;33316;52.298;9.056;2024-01-06T03:32:35;4.60;;;3.50;;
47589;SDS011;33316;52.298;9.056;2024-01-06T03:35:03;4.00;;;3.30;;
47589;SDS011;33316;52.298;9.056;2024-01-06T03:37:32;4.10;;;3.33;;
47589;SDS011;33316;52.298;9.056;2024-01-06T03:40:01;5.03;;;3.95;;
47589;SDS011;33316;52.298;9.056;2024-01-06T03:42:28;5.15;;;4.07;;
47589;SDS011;33316;52.298;9.056;2024-01-06T03:44:55;5.30;;;4.00;;
47589;SDS011;33316;52.298;9.056;2024-01-06T03:47:22;4.95;;;4.03;;
47589;SDS011;33316;52.298;9.056;2024-01-06T03:49:50;5.97;;;4.10;;
47589;SDS011;33316;52.298;9.056;2024-01-06T03:52:17;5.80;;;4.45;;
47589;SDS011;33316;52.298;9.056;2024-01-06T03:54:45;4.55;;;3.40;;
47589;SDS011;33316;52.298;9.056;2024-01-06T03:57:12;4.75;;;3.67;;
47589;SDS011;33316;52.298;9.056;2024-01-06T03:59:39;4.70;;;3.67;;
47589;SDS011;33316;52.298;9.056;2024-01-06T04:02:07;5.00;;;3.67;;
47589;SDS011;33316;52.298;9.056;2024-01-06T04:04:35;5.05;;;3.95;;
47589;SDS011;33316;52.298;9.056;2024-01-06T04:07:03;4.93;;;3.83;;
47589;SDS011;33316;52.298;9.056;2024-01-06T04:11:59;4.13;;;3.50;;
47589;SDS011;33316;52.298;9.056;2024-01-06T04:14:27;5.15;;;3.67;;
47589;SDS011;33316;52.298;9.056;2024-01-06T04:16:54;4.70;;;3.95;;
47589;SDS011;33316;52.298;9.056;2024-01-06T04:19:21;6.38;;;4.45;;
47589;SDS011;33316;52.298;9.056;2024-01-06T04:21:48;6.32;;;4.70;;
47589;SDS011;33316;52.298;9.056;2024-01-06T04:24:18;5.97;;;4.50;;
47589;SDS011;33316;52.298;9.056;2024-01-06T04:26:45;6.93;;;4.57;;
47589;SDS011;33316;52.298;9.056;2024-01-06T04:29:14;5.28;;;4.22;;
47589;SDS011;33316;52.298;9.056;2024-01-06T04:31:41;5.22;;;4.20;;
47589;SDS011;33316;52.298;9.056;2024-01-06T04:34:08;6.15;;;4.40;;
47589;SDS011;33316;52.298;9.056;2024-01-06T04:36:35;5.60;;;4.32;;
47589;SDS011;33316;52.298;9.056;2024-01-06T04:39:03;5.57;;;4.10;;
47589;SDS011;33316;52.298;9.056;2024-01-06T04:41:31;5.85;;;4.28;;
47589;SDS011;33316;52.298;9.056;2024-01-06T04:43:58;6.25;;;4.90;;
47589;SDS011;33316;52.298;9.056;2024-01-06T04:46:25;6.13;;;4.32;;
47589;SDS011;33316;52.298;9.056;2024-01-06T04:48:53;5.65;;;4.15;;
47589;SDS011;33316;52.298;9.056;2024-01-06T04:51:21;5.57;;;3.53;;
47589;SDS011;33316;52.298;9.056;2024-01-06T04:53:48;6.70;;;4.47;;
47589;SDS011;33316;52.298;9.056;2024-01-06T04:56:16;7.20;;;4.50;;
47589;SDS011;33316;52.298;9.056;2024-01-06T04:58:46;5.72;;;4.38;;
47589;SDS011;33316;52.298;9.056;2024-01-06T05:01:14;5.55;;;4.00;;
47589;SDS011;33316;52.298;9.056;2024-01-06T05:03:42;6.05;;;3.95;;
47589;SDS011;33316;52.298;9.056;2024-01-06T05:06:10;6.03;;;4.25;;
47589;SDS011;33316;52.298;9.056;2024-01-06T05:08:38;5.68;;;4.25;;
47589;SDS011;33316;52.298;9.056;2024-01-06T05:11:09;6.15;;;4.15;;
47589;SDS011;33316;52.298;9.056;2024-01-06T05:13:37;6.60;;;4.60;;
47589;SDS011;33316;52.298;9.056;2024-01-06T05:16:06;6.40;;;4.28;;
47589;SDS011;33316;52.298;9.056;2024-01-06T05:18:34;5.60;;;4.10;;
47589;SDS011;33316;52.298;9.056;2024-01-06T05:21:01;4.97;;;3.60;;
47589;SDS011;33316;52.298;9.056;2024-01-06T05:23:29;5.85;;;4.15;;
47589;SDS011;33316;52.298;9.056;2024-01-06T05:25:57;5.82;;;4.40;;
47589;SDS011;33316;52.298;9.056;2024-01-06T05:28:28;6.20;;;4.68;;
47589;SDS011;33316;52.298;9.056;2024-01-06T05:30:55;5.88;;;4.07;;
47589;SDS011;33316;52.298;9.056;2024-01-06T05:33:24;5.30;;;3.92;;
47589;SDS011;33316;52.298;9.056;2024-01-06T05:35:51;6.40;;;4.20;;
47589;SDS011;33316;52.298;9.056;2024-01-06T05:38:18;5.30;;;4.30;;
47589;SDS011;33316;52.298;9.056;2024-01-06T05:40:45;6.40;;;4.47;;
47589;SDS011;33316;52.298;9.056;2024-01-06T05:43:12;5.90;;;4.35;;
47589;SDS011;33316;52.298;9.056;2024-01-06T05:45:40;6.53;;;4.72;;
47589;SDS011;33316;52.298;9.056;2024-01-06T05:48:08;6.25;;;4.45;;
47589;SDS011;33316;52.298;9.056;2024-01-06T05:50:37;6.30;;;4.43;;
47589;SDS011;33316;52.298;9.056;2024-01-06T05:53:04;6.75;;;4.80;;
47589;SDS011;33316;52.298;9.056;2024-01-06T05:55:31;7.20;;;5.38;;
47589;SDS011;33316;52.298;9.056;2024-01-06T05:57:58;8.15;;;5.60;;
47589;SDS011;33316;52.298;9.056;2024-01-06T06:00:26;7.18;;;5.07;;
47589;SDS011;33316;52.298;9.056;2024-01-06T06:02:56;6.43;;;4.80;;
47589;SDS011;33316;52.298;9.056;2024-01-06T06:05:23;6.97;;;4.97;;
47589;SDS011;33316;52.298;9.056;2024-01-06T06:07:55;7.32;;;4.95;;
47589;SDS011;33316;52.298;9.056;2024-01-06T06:10:22;7.80;;;5.75;;
47589;SDS011;33316;52.298;9.056;2024-01-06T06:12:55;7.70;;;5.53;;
47589;SDS011;33316;52.298;9.056;2024-01-06T06:15:23;6.95;;;5.30;;
47589;SDS011;33316;52.298;9.056;2024-01-06T06:17:50;7.85;;;5.30;;
47589;SDS011;33316;52.298;9.056;2024-01-06T06:20:17;7.05;;;5.22;;
47589;SDS011;33316;52.298;9.056;2024-01-06T06:22:45;7.10;;;5.07;;
47589;SDS011;33316;52.298;9.056;2024-01-06T06:25:13;5.45;;;4.18;;
47589;SDS011;33316;52.298;9.056;2024-01-06T06:27:42;4.82;;;3.47;;
47589;SDS011;33316;52.298;9.056;2024-01-06T06:30:09;5.72;;;3.97;;
47589;SDS011;33316;52.298;9.056;2024-01-06T06:32:37;5.40;;;4.32;;
47589;SDS011;33316;52.298;9.056;2024-01-06T06:35:04;6.28;;;4.38;;
47589;SDS011;33316;52.298;9.056;2024-01-06T06:37:32;6.38;;;4.80;;
47589;SDS011;33316;52.298;9.056;2024-01-06T06:39:59;6.90;;;5.05;;
47589;SDS011;33316;52.298;9.056;2024-01-06T06:42:29;5.65;;;4.38;;
47589;SDS011;33316;52.298;9.056;2024-01-06T06:44:56;6.97;;;5.03;;
47589;SDS011;33316;52.298;9.056;2024-01-06T06:47:24;7.03;;;4.97;;
47589;SDS011;33316;52.298;9.056;2024-01-06T06:49:51;7.15;;;5.03;;
47589;SDS011;33316;52.298;9.056;2024-01-06T06:52:19;7.85;;;5.00;;
47589;SDS011;33316;52.298;9.056;2024-01-06T06:54:45;7.15;;;5.13;;
47589;SDS011;33316;52.298;9.056;2024-01-06T06:57:14;6.38;;;4.65;;
47589;SDS011;33316;52.298;9.056;2024-01-06T06:59:45;7.15;;;5.00;;
47589;SDS011;33316;52.298;9.056;2024-01-06T07:02:13;7.38;;;4.75;;
47589;SDS011;33316;52.298;9.056;2024-01-06T07:04:42;7.03;;;4.35;;
47589;SDS011;33316;52.298;9.056;2024-01-06T07:07:10;7.88;;;5.13;;
47589;SDS011;33316;52.298;9.056;2024-01-06T07:09:38;6.18;;;4.35;;
47589;SDS011;33316;52.298;9.056;2024-01-06T07:12:06;6.15;;;4.25;;
47589;SDS011;33316;52.298;9.056;2024-01-06T07:14:33;8.43;;;5.32;;
47589;SDS011;33316;52.298;9.056;2024-01-06T07:17:03;6.57;;;4.70;;
47589;SDS011;33316;52.298;9.056;2024-01-06T07:19:31;7.00;;;5.03;;
47589;SDS011;33316;52.298;9.056;2024-01-06T07:21:59;7.20;;;5.28;;
47589;SDS011;33316;52.298;9.056;2024-01-06T07:24:26;7.47;;;4.90;;
47589;SDS011;33316;52.298;9.056;2024-01-06T07:26:53;7.57;;;4.78;;
47589;SDS011;33316;52.298;9.056;2024-01-06T07:29:20;7.35;;;4.90;;
47589;SDS011;33316;52.298;9.056;2024-01-06T07:31:47;5.93;;;3.90;;
47589;SDS011;33316;52.298;9.056;2024-01-06T07:34:15;4.47;;;3.28;;
47589;SDS011;33316;52.298;9.056;2024-01-06T07:36:42;3.47;;;2.45;;
47589;SDS011;33316;52.298;9.056;2024-01-06T07:39:09;4.18;;;2.55;;
47589;SDS011;33316;52.298;9.056;2024-01-06T07:41:36;3.65;;;2.50;;
47589;SDS011;33316;52.298;9.056;2024-01-06T07:44:03;3.33;;;2.10;;
47589;SDS011;33316;52.298;9.056;2024-01-06T07:46:31;3.97;;;2.53;;
47589;SDS011;33316;52.298;9.056;2024-01-06T07:48:58;2.53;;;1.88;;
47589;SDS011;33316;52.298;9.056;2024-01-06T07:51:28;3.05;;;2.20;;
47589;SDS011;33316;52.298;9.056;2024-01-06T07:53:55;3.13;;;2.30;;
47589;SDS011;33316;52.298;9.056;2024-01-06T07:56:23;3.22;;;2.28;;
47589;SDS011;33316;52.298;9.056;2024-01-06T07:58:50;2.95;;;2.15;;
47589;SDS011;33316;52.298;9.056;2024-01-06T08:01:17;3.17;;;2.33;;
47589;SDS011;33316;52.298;9.056;2024-01-06T08:03:45;2.55;;;1.95;;
47589;SDS011;33316;52.298;9.056;2024-01-06T08:06:12;3.97;;;2.17;;
47589;SDS011;33316;52.298;9.056;2024-01-06T08:08:42;3.28;;;2.30;;
47589;SDS011;33316;52.298;9.056;2024-01-06T08:13:37;2.20;;;1.70;;
47589;SDS011;33316;52.298;9.056;2024-01-06T08:16:06;3.08;;;1.98;;
47589;SDS011;33316;52.298;9.056;2024-01-06T08:18:33;2.63;;;2.00;;
47589;SDS011;33316;52.298;9.056;2024-01-06T08:21:03;3.53;;;2.05;;
47589;SDS011;33316;52.298;9.056;2024-01-06T08:23:31;3.20;;;2.00;;
47589;SDS011;33316;52.298;9.056;2024-01-06T08:26:03;3.95;;;2.60;;
47589;SDS011;33316;52.298;9.056;2024-01-06T08:28:31;2.60;;;2.00;;
47589;SDS011;33316;52.298;9.056;2024-01-06T08:30:59;3.22;;;2.45;;
47589;SDS011;33316;52.298;9.056;2024-01-06T08:33:26;4.15;;;2.70;;
47589;SDS011;33316;52.298;9.056;2024-01-06T08:35:54;3.85;;;2.65;;
47589;SDS011;33316;52.298;9.056;2024-01-06T08:38:21;3.13;;;2.20;;
47589;SDS011;33316;52.298;9.056;2024-01-06T08:40:50;2.70;;;2.05;;
47589;SDS011;33316;52.298;9.056;2024-01-06T08:43:20;3.37;;;2.30;;
47589;SDS011;33316;52.298;9.056;2024-01-06T08:45:47;3.45;;;2.72;;
47589;SDS011;33316;52.298;9.056;2024-01-06T08:48:17;2.63;;;2.03;;
47589;SDS011;33316;52.298;9.056;2024-01-06T08:50:46;4.45;;;3.00;;
47589;SDS011;33316;52.298;9.056;2024-01-06T08:53:14;3.60;;;2.60;;
47589;SDS011;33316;52.298;9.056;2024-01-06T08:55:42;4.03;;;2.78;;
47589;SDS011;33316;52.298;9.056;2024-01-06T08:58:09;4.30;;;2.78;;
47589;SDS011;33316;52.298;9.056;2024-01-06T09:00:38;3.97;;;3.00;;
47589;SDS011;33316;52.298;9.056;2024-01-06T09:03:05;3.47;;;2.60;;
47589;SDS011;33316;52.298;9.056;2024-01-06T09:05:35;4.72;;;2.88;;
47589;SDS011;33316;52.298;9.056;2024-01-06T09:08:02;3.55;;;2.60;;
47589;SDS011;33316;52.298;9.056;2024-01-06T09:10:29;3.08;;;2.30;;
47589;SDS011;33316;52.298;9.056;2024-01-06T09:12:58;4.00;;;2.83;;
47589;SDS011;33316;52.298;9.056;2024-01-06T09:15:25;4.07;;;2.78;;
47589;SDS011;33316;52.298;9.056;2024-01-06T09:17:53;4.03;;;3.00;;
47589;SDS011;33316;52.298;9.056;2024-01-06T09:20:22;6.85;;;4.13;;
47589;SDS011;33316;52.298;9.056;2024-01-06T09:22:49;7.68;;;5.13;;
47589;SDS011;33316;52.298;9.056;2024-01-06T09:25:16;11.38;;;7.47;;
47589;SDS011;33316;52.298;9.056;2024-01-06T09:27:43;10.90;;;7.30;;
47589;SDS011;33316;52.298;9.056;2024-01-06T09:30:11;14.65;;;9.25;;
47589;SDS011;33316;52.298;9.056;2024-01-06T09:32:38;16.13;;;9.05;;
47589;SDS011;33316;52.298;9.056;2024-01-06T09:35:08;12.95;;;8.25;;
47589;SDS011;33316;52.298;9.056;2024-01-06T09:37:34;13.45;;;8.65;;
47589;SDS011;33316;52.298;9.056;2024-01-06T09:40:02;13.85;;;8.23;;
47589;SDS011;33316;52.298;9.056;2024-01-06T09:42:29;14.32;;;8.23;;
47589;SDS011;33316;52.298;9.056;2024-01-06T09:44:56;14.20;;;8.63;;
47589;SDS011;33316;52.298;9.056;2024-01-06T09:47:24;13.32;;;8.00;;
47589;SDS011;33316;52.298;9.056;2024-01-06T09:49:54;17.57;;;9.53;;
47589;SDS011;33316;52.298;9.056;2024-01-06T09:52:27;13.70;;;8.80;;
47589;SDS011;33316;52.298;9.056;2024-01-06T09:55:00;15.07;;;8.77;;
47589;SDS011;33316;52.298;9.056;2024-01-06T09:57:35;14.65;;;7.95;;
47589;SDS011;33316;52.298;9.056;2024-01-06T10:00:02;15.93;;;9.52;;
47589;SDS011;33316;52.298;9.056;2024-01-06T10:02:39;15.35;;;8.73;;
47589;SDS011;33316;52.298;9.056;2024-01-06T10:05:08;13.73;;;8.05;;
47589;SDS011;33316;52.298;9.056;2024-01-06T10:07:40;11.82;;;7.30;;
47589;SDS011;33316;52.298;9.056;2024-01-06T10:10:08;13.43;;;8.55;;
47589;SDS011;33316;52.298;9.056;2024-01-06T10:12:36;13.77;;;8.30;;
47589;SDS011;33316;52.298;9.056;2024-01-06T10:15:04;14.07;;;8.27;;
47589;SDS011;33316;52.298;9.056;2024-01-06T10:17:32;15.00;;;8.63;;
47589;SDS011;33316;52.298;9.056;2024-01-06T10:19:59;16.48;;;8.77;;
47589;SDS011;33316;52.298;9.056;2024-01-06T10:22:26;13.23;;;8.65;;
47589;SDS011;33316;52.298;9.056;2024-01-06T10:24:59;16.20;;;8.77;;
47589;SDS011;33316;52.298;9.056;2024-01-06T10:27:27;14.77;;;7.97;;
47589;SDS011;33316;52.298;9.056;2024-01-06T10:29:54;14.02;;;7.97;;
47589;SDS011;33316;52.298;9.056;2024-01-06T10:32:21;12.65;;;7.00;;
47589;SDS011;33316;52.298;9.056;2024-01-06T10:34:54;12.75;;;7.70;;
47589;SDS011;33316;52.298;9.056;2024-01-06T10:37:22;14.95;;;6.93;;
47589;SDS011;33316;52.298;9.056;2024-01-06T10:42:43;11.60;;;7.45;;
47589;SDS011;33316;52.298;9.056;2024-01-06T10:45:11;13.02;;;8.02;;
47589;SDS011;33316;52.298;9.056;2024-01-06T10:47:40;13.82;;;7.85;;
47589;SDS011;33316;52.298;9.056;2024-01-06T10:50:08;14.52;;;9.00;;
47589;SDS011;33316;52.298;9.056;2024-01-06T10:52:37;11.88;;;7.30;;
47589;SDS011;33316;52.298;9.056;2024-01-06T10:55:04;13.23;;;7.57;;
47589;SDS011;33316;52.298;9.056;2024-01-06T10:57:33;15.02;;;8.65;;
47589;SDS011;33316;52.298;9.056;2024-01-06T11:00:04;13.85;;;8.20;;
47589;SDS011;33316;52.298;9.056;2024-01-06T11:02:32;11.77;;;7.40;;
47589;SDS011;33316;52.298;9.056;2024-01-06T11:05:01;11.40;;;7.50;;
47589;SDS011;33316;52.298;9.056;2024-01-06T11:07:31;11.52;;;7.35;;
47589;SDS011;33316;52.298;9.056;2024-01-06T11:10:02;12.77;;;8.63;;
47589;SDS011;33316;52.298;9.056;2024-01-06T11:12:34;14.32;;;8.13;;
47589;SDS011;33316;52.298;9.056;2024-01-06T11:15:01;9.57;;;6.57;;
47589;SDS011;33316;52.298;9.056;2024-01-06T11:17:48;9.90;;;6.72;;
47589;SDS011;33316;52.298;9.056;2024-01-06T11:20:18;13.00;;;7.35;;
47589;SDS011;33316;52.298;9.056;2024-01-06T11:22:46;11.30;;;7.40;;
47589;SDS011;33316;52.298;9.056;2024-01-06T11:25:15;12.35;;;7.63;;
47589;SDS011;33316;52.298;9.056;2024-01-06T11:27:45;11.48;;;7.35;;
47589;SDS011;33316;52.298;9.056;2024-01-06T11:30:20;9.70;;;6.50;;
47589;SDS011;33316;52.298;9.056;2024-01-06T11:32:48;10.10;;;6.60;;
47589;SDS011;33316;52.298;9.056;2024-01-06T11:35:18;10.48;;;6.65;;
47589;SDS011;33316;52.298;9.056;2024-01-06T11:37:54;9.73;;;6.75;;
47589;SDS011;33316;52.298;9.056;2024-01-06T11:40:23;11.38;;;6.45;;
47589;SDS011;33316;52.298;9.056;2024-01-06T11:43:00;8.85;;;5.93;;
47589;SDS011;33316;52.298;9.056;2024-01-06T11:45:30;8.68;;;5.88;;
47589;SDS011;33316;52.298;9.056;2024-01-06T11:47:58;9.38;;;5.90;;
47589;SDS011;33316;52.298;9.056;2024-01-06T11:50:28;8.63;;;5.63;;
47589;SDS011;33316;52.298;9.056;2024-01-06T11:52:55;9.80;;;5.95;;
47589;SDS011;33316;52.298;9.056;2024-01-06T11:55:25;8.80;;;5.68;;
47589;SDS011;33316;52.298;9.056;2024-01-06T11:57:53;9.75;;;6.28;;
47589;SDS011;33316;52.298;9.056;2024-01-06T12:00:23;8.98;;;5.32;;
47589;SDS011;33316;52.298;9.056;2024-01-06T12:02:55;7.88;;;5.20;;
47589;SDS011;33316;52.298;9.056;2024-01-06T12:05:23;10.88;;;5.30;;
47589;SDS011;33316;52.298;9.056;2024-01-06T12:07:55;9.18;;;5.63;;
47589;SDS011;33316;52.298;9.056;2024-01-06T12:10:24;9.77;;;5.70;;
47589;SDS011;33316;52.298;9.056;2024-01-06T12:12:58;9.52;;;5.90;;
47589;SDS011;33316;52.298;9.056;2024-01-06T12:15:28;7.80;;;5.45;;
47589;SDS011;33316;52.298;9.056;2024-01-06T12:17:58;8.30;;;4.93;;
47589;SDS011;33316;52.298;9.056;2024-01-06T12:20:26;7.50;;;4.93;;
47589;SDS011;33316;52.298;9.056;2024-01-06T12:22:55;6.28;;;4.57;;
47589;SDS011;33316;52.298;9.056;2024-01-06T12:25:22;8.57;;;5.47;;
47589;SDS011;33316;52.298;9.056;2024-01-06T12:27:50;7.10;;;4.43;;
47589;SDS011;33316;52.298;9.056;2024-01-06T12:30:21;8.32;;;4.95;;
47589;SDS011;33316;52.298;9.056;2024-01-06T12:32:52;4.85;;;3.38;;
47589;SDS011;33316;52.298;9.056;2024-01-06T12:35:19;8.60;;;5.28;;
47589;SDS011;33316;52.298;9.056;2024-01-06T12:37:47;8.20;;;5.40;;
47589;SDS011;33316;52.298;9.056;2024-01-06T12:40:15;7.10;;;4.47;;
47589;SDS011;33316;52.298;9.056;2024-01-06T12:42:46;8.25;;;4.95;;
47589;SDS011;33316;52.298;9.056;2024-01-06T12:45:13;7.43;;;5.10;;
47589;SDS011;33316;52.298;9.056;2024-01-06T12:47:41;11.52;;;5.85;;
47589;SDS011;33316;52.298;9.056;2024-01-06T12:50:11;9.30;;;5.82;;
47589;SDS011;33316;52.298;9.056;2024-01-06T12:52:39;7.28;;;5.22;;
47589;SDS011;33316;52.298;9.056;2024-01-06T12:55:08;8.88;;;5.78;;
47589;SDS011;33316;52.298;9.056;2024-01-06T12:57:35;12.00;;;6.53;;
47589;SDS011;33316;52.298;9.056;2024-01-06T13:00:03;9.07;;;6.00;;
47589;SDS011;33316;52.298;9.056;2024-01-06T13:02:37;11.00;;;6.25;;
47589;SDS011;33316;52.298;9.056;2024-01-06T13:05:05;10.25;;;6.68;;
47589;SDS011;33316;52.298;9.056;2024-01-06T13:07:36;9.05;;;6.03;;
47589;SDS011;33316;52.298;9.056;2024-01-06T13:10:05;11.38;;;6.50;;
47589;SDS011;33316;52.298;9.056;2024-01-06T13:12:33;9.23;;;6.05;;
47589;SDS011;33316;52.298;9.056;2024-01-06T13:15:01;8.85;;;6.43;;
47589;SDS011;33316;52.298;9.056;2024-01-06T13:17:28;10.00;;;6.15;;
47589;SDS011;33316;52.298;9.056;2024-01-06T13:19:56;9.18;;;5.70;;
47589;SDS011;33316;52.298;9.056;2024-01-06T13:22:23;8.77;;;5.47;;
47589;SDS011;33316;52.298;9.056;2024-01-06T13:24:52;11.35;;;6.28;;
47589;SDS011;33316;52.298;9.056;2024-01-06T13:27:19;8.45;;;5.47;;
47589;SDS011;33316;52.298;9.056;2024-01-06T13:29:46;9.48;;;5.45;;
47589;SDS011;33316;52.298;9.056;2024-01-06T13:32:14;8.68;;;5.72;;
47589;SDS011;33316;52.298;9.056;2024-01-06T13:34:44;7.90;;;5.07;;
47589;SDS011;33316;52.298;9.056;2024-01-06T13:37:13;8.57;;;5.75;;
47589;SDS011;33316;52.298;9.056;2024-01-06T13:39:42;6.78;;;4.30;;
47589;SDS011;33316;52.298;9.056;2024-01-06T13:42:11;7.70;;;4.97;;
47589;SDS011;33316;52.298;9.056;2024-01-06T13:44:38;9.25;;;5.25;;
47589;SDS011;33316;52.298;9.056;2024-01-06T13:47:04;8.27;;;4.70;;
47589;SDS011;33316;52.298;9.056;2024-01-06T13:49:32;8.25;;;5.10;;
47589;SDS011;33316;52.298;9.056;2024-01-06T13:51:59;8.80;;;5.15;;
47589;SDS011;33316;52.298;9.056;2024-01-06T13:54:26;9.52;;;4.95;;
47589;SDS011;33316;52.298;9.056;2024-01-06T13:56:53;8.07;;;4.82;;
47589;SDS011;33316;52.298;9.056;2024-01-06T13:59:24;7.88;;;4.97;;
47589;SDS011;33316;52.298;9.056;2024-01-06T14:04:18;8.10;;;4.85;;
47589;SDS011;33316;52.298;9.056;2024-01-06T14:06:49;9.15;;;6.05;;
47589;SDS011;33316;52.298;9.056;2024-01-06T14:09:21;8.77;;;5.50;;
47589;SDS011;33316;52.298;9.056;2024-01-06T14:11:50;9.43;;;6.00;;
47589;SDS011;33316;52.298;9.056;2024-01-06T14:14:19;8.38;;;5.25;;
47589;SDS011;33316;52.298;9.056;2024-01-06T14:16:48;9.82;;;5.97;;
47589;SDS011;33316;52.298;9.056;2024-01-06T14:19:15;11.10;;;5.97;;
47589;SDS011;33316;52.298;9.056;2024-01-06T14:21:42;9.20;;;5.72;;
47589;SDS011;33316;52.298;9.056;2024-01-06T14:24:09;10.77;;;6.22;;
47589;SDS011;33316;52.298;9.056;2024-01-06T14:26:37;10.38;;;6.05;;
47589;SDS011;33316;52.298;9.056;2024-01-06T14:29:07;10.67;;;7.00;;
47589;SDS011;33316;52.298;9.056;2024-01-06T14:31:34;9.55;;;6.15;;
47589;SDS011;33316;52.298;9.056;2024-01-06T14:34:06;11.25;;;6.50;;
47589;SDS011;33316;52.298;9.056;2024-01-06T14:36:34;11.07;;;6.57;;
47589;SDS011;33316;52.298;9.056;2024-01-06T14:39:02;11.23;;;6.95;;
47589;SDS011;33316;52.298;9.056;2024-01-06T14:41:29;10.45;;;6.32;;
47589;SDS011;33316;52.298;9.056;2024-01-06T14:43:56;12.35;;;6.93;;
47589;SDS011;33316;52.298;9.056;2024-01-06T14:46:23;11.80;;;6.47;;
47589;SDS011;33316;52.298;9.056;2024-01-06T14:48:51;13.10;;;7.03;;
47589;SDS011;33316;52.298;9.056;2024-01-06T14:51:24;12.32;;;7.22;;
47589;SDS011;33316;52.298;9.056;2024-01-06T14:53:52;16.45;;;8.13;;
47589;SDS011;33316;52.298;9.056;2024-01-06T14:56:20;11.38;;;6.65;;
47589;SDS011;33316;52.298;9.056;2024-01-06T14:58:48;12.88;;;6.93;;
47589;SDS011;33316;52.298;9.056;2024-01-06T15:01:16;10.10;;;6.15;;